Time,TemperatureF,DewpointF,PressureIn,WindDirection,WindDirectionDegrees,WindSpeedMPH,WindSpeedGustMPH,Humidity,HourlyPrecipIn,Conditions,Clouds,dailyrainin,SolarRadiationWatts/m^2,SoftwareType,DateUTC
2013-01-25 00:01:00,63.0,61.0,-100.00,NNE,21,7.0,11.0,92,0.00,,,0.14,0.000000,,2013-01-25 10:01:00,
2013-01-25 00:11:00,63.0,61.0,-100.00,NNE,21,7.0,11.0,92,0.00,,,0.14,0.000000,,2013-01-25 10:11:00,
2013-01-25 00:21:00,63.0,61.0,-100.00,NNE,21,7.0,11.0,92,0.00,,,0.14,0.000000,,2013-01-25 10:21:00,
2013-01-25 00:31:00,63.0,61.0,-100.00,NNE,21,7.0,11.0,92,0.00,,,0.14,0.000000,,2013-01-25 10:31:00,
2013-01-25 00:52:00,61.0,59.0,-100.00,NNE,23,6.0,10.0,92,0.00,,,0.14,0.000000,,2013-01-25 10:52:00,
2013-01-25 01:02:00,61.0,59.0,-100.00,NNE,23,6.0,10.0,92,0.00,,,0.14,0.000000,,2013-01-25 11:02:00,
2013-01-25 01:11:00,61.0,59.0,-100.00,NNE,23,6.0,10.0,92,0.00,,,0.14,0.000000,,2013-01-25 11:11:00,
2013-01-25 01:22:00,61.0,59.0,-100.00,NNE,23,6.0,10.0,92,0.00,,,0.14,0.000000,,2013-01-25 11:22:00,
2013-01-25 01:32:00,61.0,59.0,-100.00,NNE,23,6.0,10.0,92,0.00,,,0.14,0.000000,,2013-01-25 11:32:00,
2013-01-25 01:52:00,61.0,59.0,-100.00,NNE,20,7.0,11.0,93,0.00,,,-99.99,0.000000,,2013-01-25 11:52:00,
2013-01-25 02:02:00,61.0,59.0,-100.00,NNE,20,7.0,11.0,93,0.00,,,-99.99,0.000000,,2013-01-25 12:02:00,
2013-01-25 02:11:00,61.0,59.0,-100.00,NNE,20,7.0,11.0,93,0.00,,,-99.99,0.000000,,2013-01-25 12:11:00,
2013-01-25 02:21:00,61.0,59.0,-100.00,NNE,20,7.0,11.0,93,0.00,,,-99.99,0.000000,,2013-01-25 12:21:00,
2013-01-25 02:32:00,61.0,59.0,-100.00,NNE,20,7.0,11.0,93,0.00,,,-99.99,0.000000,,2013-01-25 12:32:00,
2013-01-25 02:53:00,60.0,57.0,-100.00,NNE,18,8.0,11.0,91,0.00,,,-99.99,0.000000,,2013-01-25 12:53:00,
2013-01-25 03:02:00,60.0,57.0,-100.00,NNE,18,8.0,11.0,91,0.00,,,-99.99,0.000000,,2013-01-25 13:02:00,
2013-01-25 03:11:00,60.0,57.0,-100.00,NNE,18,8.0,11.0,91,0.00,,,-99.99,0.000000,,2013-01-25 13:11:00,
2013-01-25 03:22:00,60.0,57.0,-100.00,NNE,18,8.0,11.0,91,0.00,,,-99.99,0.000000,,2013-01-25 13:22:00,
2013-01-25 03:32:00,60.0,57.0,-100.00,NNE,18,8.0,11.0,91,0.00,,,-99.99,0.000000,,2013-01-25 13:32:00,
2013-01-25 04:02:00,62.0,59.0,-100.00,NNE,18,9.0,11.0,91,0.00,,,0.13,0.000000,,2013-01-25 14:02:00,
2013-01-25 04:12:00,62.0,59.0,-100.00,NNE,18,9.0,11.0,91,0.00,,,0.13,0.000000,,2013-01-25 14:12:00,
2013-01-25 04:22:00,62.0,59.0,-100.00,NNE,18,9.0,11.0,91,0.00,,,0.13,0.000000,,2013-01-25 14:22:00,
2013-01-25 04:32:00,62.0,59.0,-100.00,NNE,18,9.0,11.0,91,0.00,,,0.13,0.000000,,2013-01-25 14:32:00,
2013-01-25 05:02:00,60.0,58.0,-100.00,NNE,20,7.0,11.0,92,0.00,,,0.10,0.000000,,2013-01-25 15:02:00,
2013-01-25 05:12:00,60.0,58.0,-100.00,NNE,20,7.0,11.0,92,0.00,,,0.10,0.000000,,2013-01-25 15:12:00,
2013-01-25 05:22:00,60.0,58.0,-100.00,NNE,20,7.0,11.0,92,0.00,,,0.10,0.000000,,2013-01-25 15:22:00,
2013-01-25 05:31:00,60.0,58.0,-100.00,NNE,20,7.0,11.0,92,0.00,,,0.10,0.000000,,2013-01-25 15:31:00,
2013-01-25 06:03:00,60.0,58.0,-100.00,NNE,21,8.0,12.0,93,0.00,,,0.10,0.000000,,2013-01-25 16:03:00,
2013-01-25 06:11:00,60.0,58.0,-100.00,NNE,21,8.0,12.0,93,0.00,,,0.10,0.000000,,2013-01-25 16:11:00,
2013-01-25 06:22:00,60.0,58.0,-100.00,NNE,21,8.0,12.0,93,0.00,,,0.10,0.000000,,2013-01-25 16:22:00,
2013-01-25 06:32:00,60.0,58.0,-100.00,NNE,21,8.0,12.0,93,0.00,,,0.10,0.000000,,2013-01-25 16:32:00,
2013-01-25 07:02:00,60.0,57.0,-100.00,NNE,17,6.0,11.0,91,0.00,,,0.10,0.000000,,2013-01-25 17:02:00,
2013-01-25 07:11:00,60.0,57.0,-100.00,NNE,17,6.0,11.0,91,0.00,,,0.10,0.000000,,2013-01-25 17:11:00,
2013-01-25 07:22:00,60.0,57.0,-100.00,NNE,17,6.0,11.0,91,0.00,,,0.10,0.000000,,2013-01-25 17:22:00,
2013-01-25 07:32:00,60.0,57.0,-100.00,NNE,17,6.0,11.0,91,0.00,,,0.10,0.000000,,2013-01-25 17:32:00,
2013-01-25 08:02:00,62.0,60.0,-100.00,NNE,20,6.0,11.0,92,0.00,,,0.10,0.000000,,2013-01-25 18:02:00,
2013-01-25 08:11:00,62.0,60.0,-100.00,NNE,20,6.0,11.0,92,0.00,,,0.10,0.000000,,2013-01-25 18:11:00,
2013-01-25 08:23:00,62.0,60.0,-100.00,NNE,20,6.0,11.0,92,0.00,,,0.10,0.000000,,2013-01-25 18:23:00,
2013-01-25 08:32:00,62.0,60.0,-100.00,NNE,20,6.0,11.0,92,0.00,,,0.10,0.000000,,2013-01-25 18:32:00,
2013-01-25 09:02:00,67.0,62.0,-100.00,NNE,20,3.0,9.0,85,0.00,,,0.08,6.000000,,2013-01-25 19:02:00,
2013-01-25 09:12:00,67.0,62.0,-100.00,NNE,20,3.0,9.0,85,0.00,,,0.08,6.000000,,2013-01-25 19:12:00,
2013-01-25 09:21:00,67.0,62.0,-100.00,NNE,20,3.0,9.0,85,0.00,,,0.08,6.000000,,2013-01-25 19:21:00,
2013-01-25 09:32:00,67.0,62.0,-100.00,NNE,20,3.0,9.0,85,0.00,,,0.08,6.000000,,2013-01-25 19:32:00,
2013-01-25 10:02:00,77.0,63.0,-100.00,NE,45,3.0,5.0,61,0.00,,,-99.99,170.000000,,2013-01-25 20:02:00,
2013-01-25 10:12:00,77.0,63.0,-100.00,NE,45,3.0,5.0,61,0.00,,,-99.99,170.000000,,2013-01-25 20:12:00,
2013-01-25 10:22:00,77.0,63.0,-100.00,NE,45,3.0,5.0,61,0.00,,,-99.99,170.000000,,2013-01-25 20:22:00,
2013-01-25 10:31:00,77.0,63.0,-100.00,NE,45,3.0,5.0,61,0.00,,,-99.99,170.000000,,2013-01-25 20:31:00,
2013-01-25 11:02:00,78.0,60.0,-100.00,SW,221,2.0,8.0,54,0.01,,,0.09,445.000000,,2013-01-25 21:02:00,
2013-01-25 11:11:00,78.0,60.0,-100.00,SW,221,2.0,8.0,54,0.01,,,0.09,445.000000,,2013-01-25 21:11:00,
2013-01-25 11:22:00,78.0,60.0,-100.00,SW,221,2.0,8.0,54,0.01,,,0.09,445.000000,,2013-01-25 21:22:00,
2013-01-25 11:32:00,78.0,60.0,-100.00,SW,221,2.0,8.0,54,0.01,,,0.09,445.000000,,2013-01-25 21:32:00,
2013-01-25 12:02:00,79.0,64.0,-100.00,South,186,6.0,12.0,61,0.00,,,-99.99,695.000000,,2013-01-25 22:02:00,
2013-01-25 12:11:00,79.0,64.0,-100.00,South,186,6.0,12.0,61,0.00,,,-99.99,695.000000,,2013-01-25 22:11:00,
2013-01-25 12:22:00,79.0,64.0,-100.00,South,186,6.0,12.0,61,0.00,,,-99.99,695.000000,,2013-01-25 22:22:00,
2013-01-25 12:32:00,79.0,64.0,-100.00,South,186,6.0,12.0,61,0.00,,,-99.99,695.000000,,2013-01-25 22:32:00,
2013-01-25 13:02:00,79.0,61.0,-100.00,SSW,202,6.0,14.0,54,0.00,,,0.09,681.000000,,2013-01-25 23:02:00,
2013-01-25 13:11:00,79.0,61.0,-100.00,SSW,202,6.0,14.0,54,0.00,,,0.09,681.000000,,2013-01-25 23:11:00,
2013-01-25 13:22:00,79.0,61.0,-100.00,SSW,202,6.0,14.0,54,0.00,,,0.09,681.000000,,2013-01-25 23:22:00,
2013-01-25 13:31:00,79.0,61.0,-100.00,SSW,202,6.0,14.0,54,0.00,,,0.09,681.000000,,2013-01-25 23:31:00,
2013-01-25 14:01:00,79.0,62.0,-100.00,SSW,210,9.0,17.0,56,0.00,,,0.09,1006.000000,,2013-01-26 00:01:00,
2013-01-25 14:11:00,79.0,62.0,-100.00,SSW,210,9.0,17.0,56,0.00,,,0.09,1006.000000,,2013-01-26 00:11:00,
2013-01-25 14:22:00,79.0,62.0,-100.00,SSW,210,9.0,17.0,56,0.00,,,0.09,1006.000000,,2013-01-26 00:22:00,
2013-01-25 14:32:00,79.0,62.0,-100.00,SSW,210,9.0,17.0,56,0.00,,,0.09,1006.000000,,2013-01-26 00:32:00,
2013-01-25 14:53:00,80.0,64.0,-100.00,South,188,6.0,15.0,58,0.00,,,0.09,1085.000000,,2013-01-26 00:53:00,
2013-01-25 15:01:00,80.0,64.0,-100.00,South,188,6.0,15.0,58,0.00,,,0.09,1085.000000,,2013-01-26 01:01:00,
2013-01-25 15:11:00,80.0,64.0,-100.00,South,188,6.0,15.0,58,0.00,,,0.09,1085.000000,,2013-01-26 01:11:00,
2013-01-25 15:22:00,80.0,64.0,-100.00,South,188,6.0,15.0,58,0.00,,,0.09,1085.000000,,2013-01-26 01:22:00,
2013-01-25 15:31:00,80.0,64.0,-100.00,South,188,6.0,15.0,58,0.00,,,0.09,1085.000000,,2013-01-26 01:31:00,
2013-01-25 16:01:00,78.0,65.0,-100.00,SSW,196,5.0,13.0,65,0.00,,,0.01,852.000000,,2013-01-26 02:01:00,
2013-01-25 16:11:00,78.0,65.0,-100.00,SSW,196,5.0,13.0,65,0.00,,,0.01,852.000000,,2013-01-26 02:11:00,
2013-01-25 16:22:00,78.0,65.0,-100.00,SSW,196,5.0,13.0,65,0.00,,,0.01,852.000000,,2013-01-26 02:22:00,
2013-01-25 16:32:00,78.0,65.0,-100.00,SSW,196,5.0,13.0,65,0.00,,,0.01,852.000000,,2013-01-26 02:32:00,
2013-01-25 16:52:00,73.0,63.0,-100.00,SW,218,5.0,12.0,71,0.00,,,0.01,535.000000,,2013-01-26 02:52:00,
2013-01-25 17:01:00,73.0,63.0,-100.00,SW,218,5.0,12.0,71,0.00,,,0.01,535.000000,,2013-01-26 03:01:00,
2013-01-25 17:11:00,73.0,63.0,-100.00,SW,218,5.0,12.0,71,0.00,,,0.01,535.000000,,2013-01-26 03:11:00,
2013-01-25 17:21:00,73.0,63.0,-100.00,SW,218,5.0,12.0,71,0.00,,,0.01,535.000000,,2013-01-26 03:21:00,
2013-01-25 17:31:00,73.0,63.0,-100.00,SW,218,5.0,12.0,71,0.00,,,0.01,535.000000,,2013-01-26 03:31:00,
2013-01-25 18:01:00,73.0,64.0,-100.00,WNW,303,1.0,8.0,74,0.01,,,0.02,265.000000,,2013-01-26 04:01:00,
2013-01-25 18:12:00,73.0,64.0,-100.00,WNW,303,1.0,8.0,74,0.01,,,0.02,265.000000,,2013-01-26 04:12:00,
2013-01-25 18:21:00,73.0,64.0,-100.00,WNW,303,1.0,8.0,74,0.01,,,0.02,265.000000,,2013-01-26 04:21:00,
2013-01-25 18:32:00,73.0,64.0,-100.00,WNW,303,1.0,8.0,74,0.01,,,0.02,265.000000,,2013-01-26 04:32:00,
2013-01-25 19:03:00,68.0,63.0,-100.00,NNE,26,2.0,5.0,83,0.00,,,0.02,91.000000,,2013-01-26 05:03:00,
2013-01-25 19:12:00,68.0,63.0,-100.00,NNE,26,2.0,5.0,83,0.00,,,0.02,91.000000,,2013-01-26 05:12:00,
2013-01-25 19:22:00,68.0,63.0,-100.00,NNE,26,2.0,5.0,83,0.00,,,0.02,91.000000,,2013-01-26 05:22:00,
2013-01-25 19:33:00,68.0,63.0,-100.00,NNE,26,2.0,5.0,83,0.00,,,0.02,91.000000,,2013-01-26 05:33:00,
2013-01-25 20:02:00,68.0,65.0,-100.00,NNE,15,3.0,6.0,89,0.00,,,0.02,24.000000,,2013-01-26 06:02:00,
2013-01-25 20:12:00,68.0,65.0,-100.00,NNE,15,3.0,6.0,89,0.00,,,0.02,24.000000,,2013-01-26 06:12:00,
2013-01-25 20:21:00,68.0,65.0,-100.00,NNE,15,3.0,6.0,89,0.00,,,0.02,24.000000,,2013-01-26 06:21:00,
2013-01-25 20:31:00,68.0,65.0,-100.00,NNE,15,3.0,6.0,89,0.00,,,0.02,24.000000,,2013-01-26 06:31:00,
2013-01-25 21:01:00,66.0,63.0,-100.00,NNE,19,4.0,7.0,89,0.00,,,0.02,0.000000,,2013-01-26 07:01:00,
2013-01-25 21:12:00,66.0,63.0,-100.00,NNE,19,4.0,7.0,89,0.00,,,0.02,0.000000,,2013-01-26 07:12:00,
2013-01-25 21:21:00,66.0,63.0,-100.00,NNE,19,4.0,7.0,89,0.00,,,0.02,0.000000,,2013-01-26 07:21:00,
2013-01-25 21:33:00,66.0,63.0,-100.00,NNE,19,4.0,7.0,89,0.00,,,0.02,0.000000,,2013-01-26 07:33:00,
2013-01-25 22:02:00,64.0,61.0,-100.00,NNE,21,5.0,8.0,91,0.00,,,0.02,0.000000,,2013-01-26 08:02:00,
2013-01-25 22:11:00,64.0,61.0,-100.00,NNE,21,5.0,8.0,91,0.00,,,0.02,0.000000,,2013-01-26 08:11:00,
2013-01-25 22:21:00,64.0,61.0,-100.00,NNE,21,5.0,8.0,91,0.00,,,0.02,0.000000,,2013-01-26 08:21:00,
2013-01-25 22:31:00,64.0,61.0,-100.00,NNE,21,5.0,8.0,91,0.00,,,0.02,0.000000,,2013-01-26 08:31:00,
2013-01-25 22:54:00,63.0,61.0,-100.00,North,9,5.0,9.0,92,0.00,,,0.02,0.000000,,2013-01-26 08:54:00,
2013-01-25 23:02:00,63.0,61.0,-100.00,North,9,5.0,9.0,92,0.00,,,0.02,0.000000,,2013-01-26 09:02:00,
2013-01-25 23:11:00,63.0,61.0,-100.00,North,9,5.0,9.0,92,0.00,,,0.02,0.000000,,2013-01-26 09:11:00,
2013-01-25 23:22:00,63.0,61.0,-100.00,North,9,5.0,9.0,92,0.00,,,0.02,0.000000,,2013-01-26 09:22:00,
2013-01-25 23:31:00,63.0,61.0,-100.00,North,9,5.0,9.0,92,0.00,,,0.02,0.000000,,2013-01-26 09:31:00,
2013-01-25 23:52:00,64.0,62.0,-100.00,NNE,12,6.0,10.0,93,0.00,,,0.02,0.000000,,2013-01-26 09:52:00,